Weather at Donegal Airport

Public forecast

Using degrees Celsius for public forecast. Weather courtesy of forecast.io.

Current aviation weather report (METAR) for Donegal Airport

Retrieved 2022/08/15 18:00 UTC (2 minutes ago):

EIDL 151800Z 36017KT 9999 SCT014 SCT018 OVC032 16/12 Q1007

Closest aviation forecast (TAF) to Donegal Airport

Closest forecast is Ireland West Knock Airport, 70.1 nm (129.8 km) SSW. Retrieved 2022/08/15 16:50 UTC (1 hour ago):

TAF EIKN 151636Z 1516/1612 CNL